-2°C
Woerden, The Nederlands
Taal:  Nederlands
Updated22/01/2019 12:00 
 
Station Historical Data
 
Daily Summary for January 22, 2019 Units:  Metric    English   Both
Next Day »
Daily Weekly Monthly Yearly Custom
  Current: High: Low: Average:
Temperature: -1.7 °C -1.1 °C -3.3 °C -2.4 °C
Dew Point: -3.6 °C -3.5 °C -5.3 °C -4.5 °C
Humidity: 87% 87% 83% 86%
Wind Speed: 27.8km/h 31.5km/h 5.6km/h 19.5km/h
Wind Gust: 20.8km/h 22.2km/h - -
WindSSE - - SSE
Pressure: 1003.1 hPa 1015.1 hPa 1003.1 hPa -
Precipitation: 0.0 mm      
Historical Graphs
 
 
Tabular Data for January 22, 2019
Time Temperature Dew Point Pressure Wind Wind Speed Wind Gust Humidity Rainfall Rate (Hourly) solar Conditions
00:04 -1.5 °C -3.6 °C 1015.1 hPa South 9.3 km/h 8.0 km/h 86% 0.0 mm 0.00 W/m2 BKN
00:09 -1.6 °C -3.6 °C 1015.1 hPa South 9.3 km/h 5.5 km/h 86% 0.0 mm 0.00 W/m2 BKN
00:14 -1.6 °C -3.6 °C 1015.0 hPa South 9.7 km/h 4.3 km/h 86% 0.0 mm 0.00 W/m2 BKN
00:19 -1.7 °C -3.7 °C 1014.8 hPa South 7.4 km/h 4.7 km/h 86% 0.0 mm 0.00 W/m2 BKN
00:24 -1.8 °C -3.8 °C 1014.8 hPa South 9.3 km/h 6.1 km/h 86% 0.0 mm 0.00 W/m2 BKN
00:29 -1.8 °C -3.9 °C 1014.7 hPa South 7.4 km/h 6.8 km/h 86% 0.0 mm 0.00 W/m2 BKN
00:34 -1.9 °C -4.0 °C 1014.5 hPa SSE 9.3 km/h 6.4 km/h 86% 0.0 mm 0.00 W/m2 BKN
00:39 -2.1 °C -4.1 °C 1014.5 hPa SSE 9.3 km/h 5.8 km/h 86% 0.0 mm 0.00 W/m2 BKN
00:44 -2.2 °C -4.2 °C 1014.3 hPa SSE 9.3 km/h 7.1 km/h 86% 0.0 mm 0.00 W/m2 BKN
00:49 -2.3 °C -4.3 °C 1014.3 hPa SSE 5.6 km/h 5.8 km/h 86% 0.0 mm 0.00 W/m2 BKN
00:54 -2.4 °C -4.4 °C 1014.3 hPa SSE 6.4 km/h 4.7 km/h 86% 0.0 mm 0.00 W/m2 BKN
00:59 -2.5 °C -4.5 °C 1014.0 hPa SE 9.7 km/h 8.5 km/h 86% 0.0 mm 0.00 W/m2 BKN
01:04 -2.6 °C -4.6 °C 1014.0 hPa SE 9.3 km/h 7.9 km/h 86% 0.0 mm 0.00 W/m2 BKN
01:09 -2.6 °C -4.6 °C 1013.9 hPa SE 9.7 km/h 8.7 km/h 86% 0.0 mm 0.00 W/m2 BKN
01:14 -2.6 °C -4.6 °C 1013.8 hPa SSE 13.0 km/h 9.8 km/h 86% 0.0 mm 0.00 W/m2 BKN
01:19 -2.6 °C -4.5 °C 1013.7 hPa SSE 11.1 km/h 9.8 km/h 87% 0.0 mm 0.00 W/m2 BKN
01:24 -2.7 °C -4.6 °C 1013.6 hPa SSE 14.8 km/h 7.7 km/h 87% 0.0 mm 0.00 W/m2 BKN
01:29 -2.7 °C -4.6 °C 1013.5 hPa SE 14.8 km/h 10.8 km/h 87% 0.0 mm 0.00 W/m2 BKN
01:34 -2.7 °C -4.6 °C 1013.3 hPa SSE 16.7 km/h 10.0 km/h 87% 0.0 mm 0.00 W/m2 BKN
01:39 -2.7 °C -4.6 °C 1013.2 hPa SSE 12.9 km/h 8.7 km/h 87% 0.0 mm 0.00 W/m2 BKN
01:44 -2.7 °C -4.6 °C 1013.1 hPa SE 14.8 km/h 10.3 km/h 87% 0.0 mm 0.00 W/m2 BKN
01:49 -2.7 °C -4.6 °C 1013.0 hPa SSE 18.5 km/h 9.0 km/h 87% 0.0 mm 0.00 W/m2 BKN
01:54 -2.7 °C -4.6 °C 1012.9 hPa SSE 14.8 km/h 11.1 km/h 87% 0.0 mm 0.00 W/m2 BKN
01:59 -2.6 °C -4.5 °C 1012.8 hPa SSE 16.7 km/h 11.1 km/h 87% 0.0 mm 0.00 W/m2 BKN
02:04 -2.6 °C -4.4 °C 1012.8 hPa SE 16.7 km/h 11.6 km/h 87% 0.0 mm 0.00 W/m2 BKN
02:09 -2.6 °C -4.4 °C 1012.8 hPa SSE 16.7 km/h 12.6 km/h 87% 0.0 mm 0.00 W/m2 BKN
02:14 -2.6 °C -4.4 °C 1012.6 hPa SSE 18.5 km/h 12.2 km/h 87% 0.0 mm 0.00 W/m2 BKN
02:19 -2.6 °C -4.6 °C 1012.5 hPa SSE 14.8 km/h 10.5 km/h 86% 0.0 mm 0.00 W/m2 BKN
02:24 -2.6 °C -4.6 °C 1012.4 hPa SE 18.5 km/h 9.7 km/h 86% 0.0 mm 0.00 W/m2 BKN
02:29 -2.6 °C -4.6 °C 1012.2 hPa SE 18.5 km/h 15.0 km/h 86% 0.0 mm 0.00 W/m2 BKN
02:34 -2.6 °C -4.6 °C 1012.1 hPa SE 18.5 km/h 12.2 km/h 86% 0.0 mm 0.00 W/m2 BKN
02:39 -2.7 °C -4.7 °C 1012.0 hPa SE 14.8 km/h 9.2 km/h 86% 0.0 mm 0.00 W/m2 BKN
02:44 -2.8 °C -4.8 °C 1011.9 hPa SSE 24.1 km/h 15.9 km/h 86% 0.0 mm 0.00 W/m2 BKN
02:49 -2.8 °C -4.8 °C 1011.8 hPa SSE 19.3 km/h 15.8 km/h 86% 0.0 mm 0.00 W/m2 BKN
02:54 -2.9 °C -4.9 °C 1011.8 hPa SE 18.5 km/h 12.7 km/h 86% 0.0 mm 0.00 W/m2 BKN
02:59 -2.9 °C -4.9 °C 1011.8 hPa SSE 18.5 km/h 13.4 km/h 86% 0.0 mm 0.00 W/m2 BKN
03:04 -3.0 °C -5.0 °C 1011.8 hPa SSE 18.5 km/h 14.2 km/h 86% 0.0 mm 0.00 W/m2 BKN
03:09 -3.1 °C -5.1 °C 1011.6 hPa SSE 16.7 km/h 13.2 km/h 86% 0.0 mm 0.00 W/m2 BKN
03:14 -3.1 °C -5.1 °C 1011.5 hPa SSE 18.5 km/h 10.9 km/h 86% 0.0 mm 0.00 W/m2 BKN
03:19 -3.2 °C -5.2 °C 1011.3 hPa SSE 16.7 km/h 12.6 km/h 86% 0.0 mm 0.00 W/m2 BKN
03:24 -3.2 °C -5.2 °C 1011.2 hPa SSE 16.1 km/h 11.9 km/h 86% 0.0 mm 0.00 W/m2 BKN
03:29 -3.2 °C -5.2 °C 1011.1 hPa SSE 16.7 km/h 10.3 km/h 86% 0.0 mm 0.00 W/m2 BKN
03:34 -3.2 °C -5.2 °C 1010.9 hPa SE 18.5 km/h 11.7 km/h 86% 0.0 mm 0.00 W/m2 BKN
03:39 -3.3 °C -5.3 °C 1010.9 hPa SSE 16.7 km/h 11.7 km/h 86% 0.0 mm 0.00 W/m2 BKN
03:44 -3.3 °C -5.3 °C 1010.8 hPa SE 16.7 km/h 13.5 km/h 86% 0.0 mm 0.00 W/m2 BKN
03:49 -3.3 °C -5.3 °C 1010.7 hPa SSE 16.7 km/h 14.2 km/h 86% 0.0 mm 0.00 W/m2 BKN
03:54 -3.3 °C -5.3 °C 1010.7 hPa SSE 18.5 km/h 8.0 km/h 86% 0.0 mm 0.00 W/m2 BKN
03:59 -3.3 °C -5.3 °C 1010.6 hPa SSE 14.8 km/h 11.4 km/h 86% 0.0 mm 0.00 W/m2 BKN
04:04 -3.3 °C -5.1 °C 1010.5 hPa SSE 13.0 km/h 10.0 km/h 87% 0.0 mm 0.00 W/m2 BKN
04:09 -3.3 °C -5.3 °C 1010.3 hPa SSE 14.8 km/h 10.6 km/h 86% 0.0 mm 0.00 W/m2 BKN
04:14 -3.3 °C -5.3 °C 1010.2 hPa SSE 14.8 km/h 10.0 km/h 86% 0.0 mm 0.00 W/m2 BKN
04:19 -3.3 °C -5.3 °C 1010.0 hPa SE 14.8 km/h 11.6 km/h 86% 0.0 mm 0.00 W/m2 BKN
04:24 -3.3 °C -5.3 °C 1009.9 hPa SSE 14.8 km/h 11.1 km/h 86% 0.0 mm 0.00 W/m2 BKN
04:29 -3.2 °C -5.2 °C 1009.8 hPa SSE 14.8 km/h 11.6 km/h 86% 0.0 mm 0.00 W/m2 BKN
04:34 -3.2 °C -5.2 °C 1009.7 hPa SE 18.5 km/h 11.7 km/h 86% 0.0 mm 0.00 W/m2 BKN
04:39 -3.1 °C -5.1 °C 1009.6 hPa SSE 16.7 km/h 10.9 km/h 86% 0.0 mm 0.00 W/m2 BKN
04:44 -3.0 °C -5.0 °C 1009.6 hPa SSE 11.1 km/h 11.1 km/h 86% 0.0 mm 0.00 W/m2 BKN
04:49 -2.9 °C -4.9 °C 1009.5 hPa SSE 18.5 km/h 12.7 km/h 86% 0.0 mm 0.00 W/m2 BKN
04:54 -2.8 °C -4.8 °C 1009.3 hPa SSE 18.5 km/h 13.8 km/h 86% 0.0 mm 0.00 W/m2 BKN
04:59 -2.8 °C -4.8 °C 1009.1 hPa SE 18.5 km/h 13.0 km/h 86% 0.0 mm 0.00 W/m2 BKN
05:04 -2.8 °C -4.8 °C 1009.0 hPa SE 22.2 km/h 12.7 km/h 86% 0.0 mm 0.00 W/m2 BKN
05:09 -2.8 °C -5.0 °C 1008.9 hPa SE 20.4 km/h 14.3 km/h 85% 0.0 mm 0.00 W/m2 BKN
05:14 -2.9 °C -5.1 °C 1008.7 hPa SE 20.4 km/h 15.1 km/h 85% 0.0 mm 0.00 W/m2 BKN
05:19 -2.9 °C -5.1 °C 1008.6 hPa SE 18.5 km/h 17.1 km/h 85% 0.0 mm 0.00 W/m2 BKN
05:24 -2.9 °C -5.1 °C 1008.5 hPa SE 20.4 km/h 15.8 km/h 85% 0.0 mm 0.00 W/m2 BKN
05:29 -2.9 °C -5.1 °C 1008.4 hPa SSE 18.5 km/h 15.8 km/h 85% 0.0 mm 0.00 W/m2 BKN
05:34 -2.8 °C -5.0 °C 1008.3 hPa SSE 18.5 km/h 15.8 km/h 85% 0.0 mm 0.00 W/m2 BKN
05:39 -2.8 °C -4.9 °C 1008.2 hPa SSE 18.5 km/h 10.6 km/h 85% 0.0 mm 0.00 W/m2 BKN
05:44 -2.8 °C -4.9 °C 1008.1 hPa SE 20.4 km/h 14.3 km/h 85% 0.0 mm 0.00 W/m2 BKN
05:49 -2.8 °C -5.1 °C 1007.9 hPa SE 18.5 km/h 14.8 km/h 84% 0.0 mm 0.00 W/m2 BKN
05:54 -2.8 °C -5.1 °C 1007.9 hPa SSE 18.5 km/h 12.4 km/h 84% 0.0 mm 0.00 W/m2 BKN
05:59 -2.8 °C -5.2 °C 1007.7 hPa SSE 22.2 km/h 17.2 km/h 84% 0.0 mm 0.00 W/m2 BKN
06:04 -2.9 °C -5.1 °C 1007.6 hPa SSE 18.5 km/h 12.4 km/h 85% 0.0 mm 0.00 W/m2 BKN
06:09 -3.0 °C -5.3 °C 1007.5 hPa SE 20.4 km/h 13.2 km/h 84% 0.0 mm 0.00 W/m2 BKN
06:14 -2.9 °C -5.3 °C 1007.4 hPa SE 18.5 km/h 14.5 km/h 84% 0.0 mm 0.00 W/m2 BKN
06:19 -2.9 °C -5.3 °C 1007.4 hPa SSE 18.5 km/h 13.0 km/h 84% 0.0 mm 0.00 W/m2 BKN
06:24 -2.9 °C -5.2 °C 1007.3 hPa SE 18.5 km/h 13.7 km/h 84% 0.0 mm 0.00 W/m2 BKN
06:29 -2.9 °C -5.1 °C 1007.3 hPa SE 22.2 km/h 15.6 km/h 85% 0.0 mm 0.00 W/m2 BKN
06:34 -2.8 °C -5.2 °C 1007.2 hPa SE 24.1 km/h 16.1 km/h 84% 0.0 mm 0.00 W/m2 BKN
06:39 -2.8 °C -5.2 °C 1007.1 hPa SE 19.3 km/h 14.8 km/h 84% 0.0 mm 0.00 W/m2 BKN
06:44 -2.8 °C -5.1 °C 1007.0 hPa SSE 20.4 km/h 17.2 km/h 84% 0.0 mm 0.00 W/m2 BKN
06:49 -2.8 °C -5.1 °C 1007.0 hPa SE 17.7 km/h 13.4 km/h 84% 0.0 mm 0.00 W/m2 BKN
06:54 -2.7 °C -5.1 °C 1006.9 hPa SE 19.3 km/h 17.1 km/h 84% 0.0 mm 0.00 W/m2 BKN
06:59 -2.7 °C -5.0 °C 1006.8 hPa SSE 19.3 km/h 16.9 km/h 84% 0.0 mm 0.00 W/m2 BKN
07:04 -2.7 °C -5.0 °C 1006.7 hPa SSE 19.3 km/h 15.6 km/h 84% 0.0 mm 0.00 W/m2 BKN
07:09 -2.7 °C -4.8 °C 1006.7 hPa SE 20.4 km/h 15.0 km/h 85% 0.0 mm 0.00 W/m2 BKN
07:14 -2.7 °C -4.8 °C 1006.5 hPa SE 22.2 km/h 14.8 km/h 85% 0.0 mm 0.00 W/m2 BKN
07:19 -2.6 °C -4.8 °C 1006.4 hPa SSE 22.2 km/h 13.7 km/h 85% 0.0 mm 0.00 W/m2 BKN
07:24 -2.6 °C -4.7 °C 1006.4 hPa SSE 22.2 km/h 15.8 km/h 85% 0.0 mm 0.00 W/m2 BKN
07:29 -2.5 °C -4.7 °C 1006.3 hPa SSE 22.5 km/h 14.0 km/h 85% 0.0 mm 0.00 W/m2 BKN
07:34 -2.5 °C -4.7 °C 1006.3 hPa SE 27.8 km/h 17.5 km/h 85% 0.0 mm 0.00 W/m2 BKN
07:39 -2.4 °C -4.6 °C 1006.2 hPa SSE 22.2 km/h 16.7 km/h 85% 0.0 mm 0.00 W/m2 BKN
07:44 -2.4 °C -4.6 °C 1006.1 hPa SE 18.5 km/h 14.8 km/h 85% 0.0 mm 0.00 W/m2 BKN
07:49 -2.3 °C -4.5 °C 1006.0 hPa SSE 20.4 km/h 15.8 km/h 85% 0.0 mm 0.00 W/m2 BKN
07:54 -2.3 °C -4.4 °C 1005.9 hPa SSE 22.2 km/h 17.4 km/h 85% 0.0 mm 0.00 W/m2 BKN
07:59 -2.2 °C -4.4 °C 1005.8 hPa SSE 19.3 km/h 17.9 km/h 85% 0.0 mm 0.00 W/m2 BKN
08:04 -2.2 °C -4.4 °C 1005.7 hPa SE 18.5 km/h 13.7 km/h 85% 0.0 mm 0.00 W/m2 BKN
08:09 -2.2 °C -4.3 °C 1005.5 hPa SE 18.5 km/h 13.4 km/h 85% 0.0 mm 0.00 W/m2 BKN
08:14 -2.2 °C -4.3 °C 1005.5 hPa SSE 18.5 km/h 12.7 km/h 85% 0.0 mm 0.00 W/m2 BKN
08:19 -2.1 °C -4.3 °C 1005.4 hPa SE 20.9 km/h 15.1 km/h 85% 0.0 mm 0.00 W/m2 BKN
08:24 -2.1 °C -4.3 °C 1005.4 hPa SSE 24.1 km/h 18.0 km/h 85% 0.0 mm 0.00 W/m2 BKN
08:29 -2.1 °C -4.4 °C 1005.3 hPa SE 18.5 km/h 15.4 km/h 84% 0.0 mm 0.00 W/m2 BKN
08:34 -2.1 °C -4.4 °C 1005.3 hPa SE 22.2 km/h 15.4 km/h 84% 0.0 mm 5.00 W/m2 BKN
08:39 -2.1 °C -4.4 °C 1005.2 hPa SSE 25.9 km/h 16.9 km/h 84% 0.0 mm 5.00 W/m2 OVC
08:44 -2.1 °C -4.4 °C 1005.1 hPa South 18.5 km/h 18.7 km/h 84% 0.0 mm 5.00 W/m2 OVC
08:49 -2.0 °C -4.3 °C 1005.1 hPa SSE 20.4 km/h 14.8 km/h 84% 0.0 mm 7.00 W/m2 OVC
08:54 -2.0 °C -4.3 °C 1005.1 hPa SE 25.9 km/h 18.8 km/h 84% 0.0 mm 9.00 W/m2 OVC
08:59 -1.9 °C -4.3 °C 1005.0 hPa SE 25.9 km/h 21.4 km/h 84% 0.0 mm 14.00 W/m2 OVC
09:04 -1.9 °C -4.2 °C 1004.9 hPa SSE 22.2 km/h 19.0 km/h 84% 0.0 mm 18.00 W/m2 OVC
09:09 -1.8 °C -4.2 °C 1004.7 hPa SE 24.1 km/h 17.5 km/h 84% 0.0 mm 19.00 W/m2 OVC
09:14 -1.8 °C -4.2 °C 1004.7 hPa SSE 22.2 km/h 16.1 km/h 84% 0.0 mm 23.00 W/m2 OVC
09:19 -1.8 °C -3.9 °C 1004.7 hPa SE 25.9 km/h 18.0 km/h 85% 0.0 mm 28.00 W/m2 OVC
09:24 -1.7 °C -3.9 °C 1004.7 hPa South 22.2 km/h 16.6 km/h 85% 0.0 mm 35.00 W/m2 OVC
09:29 -1.7 °C -4.0 °C 1004.6 hPa SSE 22.5 km/h 19.3 km/h 84% 0.0 mm 44.00 W/m2 OVC
09:34 -1.6 °C -3.9 °C 1004.4 hPa SE 22.2 km/h 17.4 km/h 84% 0.0 mm 53.00 W/m2 OVC
09:39 -1.5 °C -3.8 °C 1004.4 hPa South 29.6 km/h 20.8 km/h 84% 0.0 mm 65.00 W/m2 OVC
09:44 -1.4 °C -3.8 °C 1004.3 hPa SSE 25.7 km/h 16.3 km/h 84% 0.0 mm 79.00 W/m2 BKN
09:49 -1.4 °C -3.7 °C 1004.4 hPa SSE 29.6 km/h 15.0 km/h 84% 0.0 mm 98.00 W/m2 SCT
09:54 -1.3 °C -3.6 °C 1004.3 hPa SSE 25.9 km/h 20.4 km/h 84% 0.0 mm 98.00 W/m2 CLR
09:59 -1.2 °C -3.5 °C 1004.3 hPa SSE 31.5 km/h 21.4 km/h 84% 0.0 mm 67.00 W/m2 CLR
10:04 -1.1 °C -3.6 °C 1004.2 hPa SSE 29.6 km/h 19.6 km/h 83% 0.0 mm 39.00 W/m2 CLR
10:09 -1.1 °C -3.6 °C 1004.3 hPa SSE 27.4 km/h 19.6 km/h 83% 0.0 mm 35.00 W/m2 CLR
10:14 -1.1 °C -3.6 °C 1004.0 hPa SSE 31.5 km/h 21.4 km/h 83% 0.0 mm 35.00 W/m2 CLR
10:19 -1.1 °C -3.6 °C 1003.8 hPa South 29.0 km/h 22.0 km/h 83% 0.0 mm 39.00 W/m2 CLR
10:24 -1.2 °C -3.5 °C 1003.9 hPa SSE 29.0 km/h 20.1 km/h 84% 0.0 mm 35.00 W/m2 CLR
10:29 -1.3 °C -3.5 °C 1004.1 hPa SSE 27.4 km/h 19.1 km/h 85% 0.0 mm 32.00 W/m2 SCT
10:34 -1.5 °C -3.6 °C 1003.8 hPa SSE 27.8 km/h 21.4 km/h 86% 0.0 mm 35.00 W/m2 SCT
10:39 -1.7 °C -3.6 °C 1003.8 hPa SSE 29.6 km/h 20.8 km/h 87% 0.0 mm 35.00 W/m2 SCT
10:44 -1.7 °C -3.6 °C 1003.8 hPa SSE 20.4 km/h 14.8 km/h 87% 0.0 mm 37.00 W/m2 BKN
10:49 -1.8 °C -3.7 °C 1003.9 hPa SE 25.9 km/h 19.1 km/h 87% 0.0 mm 47.00 W/m2 BKN
10:54 -1.9 °C -3.8 °C 1003.7 hPa SSE 25.9 km/h 18.3 km/h 87% 0.0 mm 54.00 W/m2 SCT
10:59 -1.9 °C -3.8 °C 1003.6 hPa SSE 22.5 km/h 15.8 km/h 87% 0.0 mm 62.00 W/m2 SCT
11:04 -1.9 °C -3.8 °C 1003.7 hPa South 29.6 km/h 21.4 km/h 87% 0.0 mm 74.00 W/m2 SCT
11:09 -1.9 °C -3.8 °C 1003.7 hPa SSE 27.4 km/h 22.2 km/h 87% 0.0 mm 81.00 W/m2 SCT
11:14 -1.9 °C -3.8 °C 1003.5 hPa SSE 29.6 km/h 21.7 km/h 87% 0.0 mm 91.00 W/m2 SCT
11:19 -1.9 °C -3.8 °C 1003.5 hPa SSE 30.6 km/h 20.4 km/h 87% 0.0 mm 77.00 W/m2 SCT
11:24 -1.9 °C -3.8 °C 1003.5 hPa SSE 24.1 km/h 20.3 km/h 87% 0.0 mm 76.00 W/m2 SCT
11:29 -1.8 °C -3.7 °C 1003.5 hPa SSE 25.9 km/h 15.4 km/h 87% 0.0 mm 65.00 W/m2 SCT
11:34 -1.8 °C -3.7 °C 1003.4 hPa SSE 24.1 km/h 19.3 km/h 87% 0.0 mm 67.00 W/m2 SCT
11:39 -1.8 °C -3.7 °C 1003.3 hPa SSE 29.6 km/h 22.0 km/h 87% 0.0 mm 62.00 W/m2 BKN
11:44 -1.8 °C -3.7 °C 1003.4 hPa SSE 20.4 km/h 15.9 km/h 87% 0.0 mm 67.00 W/m2 BKN
11:49 -1.7 °C -3.6 °C 1003.3 hPa South 18.5 km/h 17.4 km/h 87% 0.0 mm 56.00 W/m2 BKN
11:54 -1.7 °C -3.6 °C 1003.2 hPa SSE 20.9 km/h 16.7 km/h 87% 0.0 mm 53.00 W/m2 BKN
11:59 -1.7 °C -3.6 °C 1003.1 hPa SSE 27.8 km/h 20.8 km/h 87% 0.0 mm 56.00 W/m2 BKN
Juneau County Weather